sensor_id;sensor_type;location;lat;lon;timestamp;P1;durP1;ratioP1;P2;durP2;ratioP2
48859;SDS011;34679;51.436;-2.518;2022-10-30T00:00:26;32.95;;;3.47;;
48859;SDS011;34679;51.436;-2.518;2022-10-30T00:02:52;26.35;;;4.00;;
48859;SDS011;34679;51.436;-2.518;2022-10-30T00:05:18;32.55;;;3.58;;
48859;SDS011;34679;51.436;-2.518;2022-10-30T00:07:45;27.35;;;3.97;;
48859;SDS011;34679;51.436;-2.518;2022-10-30T00:10:11;27.58;;;4.13;;
48859;SDS011;34679;51.436;-2.518;2022-10-30T00:12:37;28.30;;;3.38;;
48859;SDS011;34679;51.436;-2.518;2022-10-30T00:15:03;20.13;;;3.33;;
48859;SDS011;34679;51.436;-2.518;2022-10-30T00:17:29;34.97;;;3.75;;
48859;SDS011;34679;51.436;-2.518;2022-10-30T00:19:55;24.90;;;3.45;;
48859;SDS011;34679;51.436;-2.518;2022-10-30T00:22:20;26.40;;;4.07;;
48859;SDS011;34679;51.436;-2.518;2022-10-30T00:24:46;22.30;;;3.63;;
48859;SDS011;34679;51.436;-2.518;2022-10-30T00:27:12;31.38;;;4.65;;
48859;SDS011;34679;51.436;-2.518;2022-10-30T00:29:38;26.88;;;2.75;;
48859;SDS011;34679;51.436;-2.518;2022-10-30T00:32:03;27.95;;;4.22;;
48859;SDS011;34679;51.436;-2.518;2022-10-30T00:34:29;29.88;;;4.63;;
48859;SDS011;34679;51.436;-2.518;2022-10-30T00:36:55;30.95;;;4.78;;
48859;SDS011;34679;51.436;-2.518;2022-10-30T00:39:20;23.10;;;3.03;;
48859;SDS011;34679;51.436;-2.518;2022-10-30T00:41:46;29.42;;;4.57;;
48859;SDS011;34679;51.436;-2.518;2022-10-30T00:46:56;34.00;;;3.60;;
48859;SDS011;34679;51.436;-2.518;2022-10-30T00:49:28;35.22;;;3.95;;
48859;SDS011;34679;51.436;-2.518;2022-10-30T00:51:58;28.17;;;4.35;;
48859;SDS011;34679;51.436;-2.518;2022-10-30T00:54:25;27.80;;;3.33;;
48859;SDS011;34679;51.436;-2.518;2022-10-30T00:56:51;30.30;;;3.28;;
48859;SDS011;34679;51.436;-2.518;2022-10-30T00:59:22;32.75;;;3.78;;
48859;SDS011;34679;51.436;-2.518;2022-10-30T01:01:51;37.38;;;5.38;;
48859;SDS011;34679;51.436;-2.518;2022-10-30T01:04:18;30.80;;;4.72;;
48859;SDS011;34679;51.436;-2.518;2022-10-30T01:06:46;45.58;;;4.63;;
48859;SDS011;34679;51.436;-2.518;2022-10-30T01:09:16;24.33;;;3.08;;
48859;SDS011;34679;51.436;-2.518;2022-10-30T01:11:43;31.17;;;3.70;;
48859;SDS011;34679;51.436;-2.518;2022-10-30T01:14:10;30.48;;;4.10;;
48859;SDS011;34679;51.436;-2.518;2022-10-30T01:19:43;26.20;;;3.28;;
48859;SDS011;34679;51.436;-2.518;2022-10-30T01:25:51;25.80;;;4.38;;
48859;SDS011;34679;51.436;-2.518;2022-10-30T01:31:12;30.17;;;3.42;;
48859;SDS011;34679;51.436;-2.518;2022-10-30T01:33:45;31.75;;;4.20;;
48859;SDS011;34679;51.436;-2.518;2022-10-30T01:38:50;21.85;;;4.63;;
48859;SDS011;34679;51.436;-2.518;2022-10-30T01:41:24;22.42;;;3.70;;
48859;SDS011;34679;51.436;-2.518;2022-10-30T01:43:51;27.45;;;3.72;;
48859;SDS011;34679;51.436;-2.518;2022-10-30T01:46:40;24.35;;;3.85;;
48859;SDS011;34679;51.436;-2.518;2022-10-30T01:57:54;24.52;;;3.22;;
48859;SDS011;34679;51.436;-2.518;2022-10-30T02:00:45;21.60;;;3.97;;
48859;SDS011;34679;51.436;-2.518;2022-10-30T02:03:16;38.53;;;5.32;;
48859;SDS011;34679;51.436;-2.518;2022-10-30T02:05:44;25.08;;;3.83;;
48859;SDS011;34679;51.436;-2.518;2022-10-30T02:08:13;21.95;;;3.28;;
48859;SDS011;34679;51.436;-2.518;2022-10-30T02:10:39;27.67;;;3.25;;
48859;SDS011;34679;51.436;-2.518;2022-10-30T02:13:07;20.02;;;2.65;;
48859;SDS011;34679;51.436;-2.518;2022-10-30T02:15:33;22.15;;;3.20;;
48859;SDS011;34679;51.436;-2.518;2022-10-30T02:17:59;35.10;;;4.03;;
48859;SDS011;34679;51.436;-2.518;2022-10-30T02:20:25;34.58;;;3.72;;
48859;SDS011;34679;51.436;-2.518;2022-10-30T02:22:51;25.80;;;3.72;;
48859;SDS011;34679;51.436;-2.518;2022-10-30T02:25:17;30.45;;;3.22;;
48859;SDS011;34679;51.436;-2.518;2022-10-30T02:27:43;17.75;;;3.28;;
48859;SDS011;34679;51.436;-2.518;2022-10-30T02:30:09;32.85;;;4.13;;
48859;SDS011;34679;51.436;-2.518;2022-10-30T02:32:35;30.95;;;3.70;;
48859;SDS011;34679;51.436;-2.518;2022-10-30T02:35:01;34.83;;;4.30;;
48859;SDS011;34679;51.436;-2.518;2022-10-30T02:37:27;27.10;;;3.65;;
48859;SDS011;34679;51.436;-2.518;2022-10-30T02:39:53;27.25;;;4.43;;
48859;SDS011;34679;51.436;-2.518;2022-10-30T02:42:19;21.63;;;3.13;;
48859;SDS011;34679;51.436;-2.518;2022-10-30T02:44:44;26.83;;;3.13;;
48859;SDS011;34679;51.436;-2.518;2022-10-30T02:47:10;26.77;;;4.78;;
48859;SDS011;34679;51.436;-2.518;2022-10-30T02:49:36;27.40;;;4.35;;
48859;SDS011;34679;51.436;-2.518;2022-10-30T02:52:01;29.25;;;3.80;;
48859;SDS011;34679;51.436;-2.518;2022-10-30T02:54:27;20.65;;;3.10;;
48859;SDS011;34679;51.436;-2.518;2022-10-30T02:56:52;19.40;;;4.05;;
48859;SDS011;34679;51.436;-2.518;2022-10-30T02:59:18;24.73;;;3.65;;
48859;SDS011;34679;51.436;-2.518;2022-10-30T03:01:44;28.70;;;3.50;;
48859;SDS011;34679;51.436;-2.518;2022-10-30T03:04:10;30.27;;;5.63;;
48859;SDS011;34679;51.436;-2.518;2022-10-30T03:06:36;24.80;;;3.00;;
48859;SDS011;34679;51.436;-2.518;2022-10-30T03:09:02;24.15;;;2.63;;
48859;SDS011;34679;51.436;-2.518;2022-10-30T03:11:27;28.88;;;3.17;;
48859;SDS011;34679;51.436;-2.518;2022-10-30T03:13:53;31.75;;;3.55;;
48859;SDS011;34679;51.436;-2.518;2022-10-30T03:16:20;26.90;;;3.63;;
48859;SDS011;34679;51.436;-2.518;2022-10-30T03:18:47;25.27;;;5.10;;
48859;SDS011;34679;51.436;-2.518;2022-10-30T03:21:15;30.88;;;3.85;;
48859;SDS011;34679;51.436;-2.518;2022-10-30T03:23:43;31.15;;;3.63;;
48859;SDS011;34679;51.436;-2.518;2022-10-30T03:26:09;25.55;;;3.70;;
48859;SDS011;34679;51.436;-2.518;2022-10-30T03:28:35;20.55;;;3.28;;
48859;SDS011;34679;51.436;-2.518;2022-10-30T03:31:02;32.25;;;3.67;;
48859;SDS011;34679;51.436;-2.518;2022-10-30T03:33:30;29.65;;;4.47;;
48859;SDS011;34679;51.436;-2.518;2022-10-30T03:35:57;26.40;;;3.58;;
48859;SDS011;34679;51.436;-2.518;2022-10-30T03:38:23;17.92;;;3.20;;
48859;SDS011;34679;51.436;-2.518;2022-10-30T03:40:49;25.33;;;3.58;;
48859;SDS011;34679;51.436;-2.518;2022-10-30T03:43:15;24.23;;;3.55;;
48859;SDS011;34679;51.436;-2.518;2022-10-30T03:45:44;36.60;;;6.00;;
48859;SDS011;34679;51.436;-2.518;2022-10-30T03:48:12;23.90;;;3.10;;
48859;SDS011;34679;51.436;-2.518;2022-10-30T03:50:37;34.17;;;3.33;;
48859;SDS011;34679;51.436;-2.518;2022-10-30T03:53:03;26.15;;;3.40;;
48859;SDS011;34679;51.436;-2.518;2022-10-30T03:55:29;25.52;;;3.88;;
48859;SDS011;34679;51.436;-2.518;2022-10-30T03:57:54;28.73;;;4.03;;
48859;SDS011;34679;51.436;-2.518;2022-10-30T04:00:20;28.73;;;4.72;;
48859;SDS011;34679;51.436;-2.518;2022-10-30T04:02:50;22.27;;;2.88;;
48859;SDS011;34679;51.436;-2.518;2022-10-30T04:05:17;23.92;;;3.88;;
48859;SDS011;34679;51.436;-2.518;2022-10-30T04:07:45;33.00;;;3.92;;
48859;SDS011;34679;51.436;-2.518;2022-10-30T04:10:11;30.02;;;3.75;;
48859;SDS011;34679;51.436;-2.518;2022-10-30T04:12:38;23.45;;;3.83;;
48859;SDS011;34679;51.436;-2.518;2022-10-30T04:15:04;27.83;;;3.33;;
48859;SDS011;34679;51.436;-2.518;2022-10-30T04:17:32;25.50;;;3.92;;
48859;SDS011;34679;51.436;-2.518;2022-10-30T04:19:58;22.95;;;3.17;;
48859;SDS011;34679;51.436;-2.518;2022-10-30T04:22:24;25.63;;;3.25;;
48859;SDS011;34679;51.436;-2.518;2022-10-30T04:24:50;31.20;;;3.70;;
48859;SDS011;34679;51.436;-2.518;2022-10-30T04:27:17;27.92;;;3.35;;
48859;SDS011;34679;51.436;-2.518;2022-10-30T04:29:44;28.30;;;3.30;;
48859;SDS011;34679;51.436;-2.518;2022-10-30T04:32:11;34.88;;;3.92;;
48859;SDS011;34679;51.436;-2.518;2022-10-30T04:34:37;26.00;;;3.50;;
48859;SDS011;34679;51.436;-2.518;2022-10-30T04:37:04;30.40;;;3.20;;
48859;SDS011;34679;51.436;-2.518;2022-10-30T04:39:30;22.73;;;3.08;;
48859;SDS011;34679;51.436;-2.518;2022-10-30T04:41:56;30.75;;;4.60;;
48859;SDS011;34679;51.436;-2.518;2022-10-30T04:44:22;31.55;;;4.63;;
48859;SDS011;34679;51.436;-2.518;2022-10-30T04:46:48;28.33;;;4.25;;
48859;SDS011;34679;51.436;-2.518;2022-10-30T04:49:13;22.45;;;3.95;;
48859;SDS011;34679;51.436;-2.518;2022-10-30T04:51:39;24.55;;;3.53;;
48859;SDS011;34679;51.436;-2.518;2022-10-30T04:54:05;26.65;;;4.00;;
48859;SDS011;34679;51.436;-2.518;2022-10-30T04:56:30;23.30;;;3.22;;
48859;SDS011;34679;51.436;-2.518;2022-10-30T04:58:57;22.92;;;3.10;;
48859;SDS011;34679;51.436;-2.518;2022-10-30T05:01:23;22.55;;;3.55;;
48859;SDS011;34679;51.436;-2.518;2022-10-30T05:03:49;26.42;;;3.22;;
48859;SDS011;34679;51.436;-2.518;2022-10-30T05:08:47;31.38;;;3.70;;
48859;SDS011;34679;51.436;-2.518;2022-10-30T05:11:13;32.08;;;3.95;;
48859;SDS011;34679;51.436;-2.518;2022-10-30T05:13:41;22.83;;;3.35;;
48859;SDS011;34679;51.436;-2.518;2022-10-30T05:16:06;33.42;;;3.55;;
48859;SDS011;34679;51.436;-2.518;2022-10-30T05:18:32;24.02;;;3.90;;
48859;SDS011;34679;51.436;-2.518;2022-10-30T05:20:58;37.65;;;3.90;;
48859;SDS011;34679;51.436;-2.518;2022-10-30T05:23:24;37.58;;;4.38;;
48859;SDS011;34679;51.436;-2.518;2022-10-30T05:25:49;27.70;;;3.40;;
48859;SDS011;34679;51.436;-2.518;2022-10-30T05:28:15;30.30;;;3.63;;
48859;SDS011;34679;51.436;-2.518;2022-10-30T05:30:41;18.48;;;3.67;;
48859;SDS011;34679;51.436;-2.518;2022-10-30T05:33:08;25.83;;;4.00;;
48859;SDS011;34679;51.436;-2.518;2022-10-30T05:35:36;27.48;;;3.85;;
48859;SDS011;34679;51.436;-2.518;2022-10-30T05:38:03;26.40;;;3.72;;
48859;SDS011;34679;51.436;-2.518;2022-10-30T05:40:30;22.42;;;3.20;;
48859;SDS011;34679;51.436;-2.518;2022-10-30T05:42:57;30.67;;;3.30;;
48859;SDS011;34679;51.436;-2.518;2022-10-30T05:45:23;22.77;;;4.65;;
48859;SDS011;34679;51.436;-2.518;2022-10-30T05:47:53;27.73;;;4.40;;
48859;SDS011;34679;51.436;-2.518;2022-10-30T05:50:23;28.20;;;3.72;;
48859;SDS011;34679;51.436;-2.518;2022-10-30T05:52:53;29.80;;;4.00;;
48859;SDS011;34679;51.436;-2.518;2022-10-30T05:57:48;28.33;;;4.32;;
48859;SDS011;34679;51.436;-2.518;2022-10-30T06:00:14;33.08;;;4.93;;
48859;SDS011;34679;51.436;-2.518;2022-10-30T06:02:41;26.33;;;3.17;;
48859;SDS011;34679;51.436;-2.518;2022-10-30T06:05:06;31.90;;;3.72;;
48859;SDS011;34679;51.436;-2.518;2022-10-30T06:07:32;29.67;;;4.22;;
48859;SDS011;34679;51.436;-2.518;2022-10-30T06:09:58;21.08;;;3.05;;
48859;SDS011;34679;51.436;-2.518;2022-10-30T06:12:24;30.73;;;3.42;;
48859;SDS011;34679;51.436;-2.518;2022-10-30T06:14:50;28.13;;;3.45;;
48859;SDS011;34679;51.436;-2.518;2022-10-30T06:17:16;24.38;;;3.20;;
48859;SDS011;34679;51.436;-2.518;2022-10-30T06:19:41;35.08;;;4.47;;
48859;SDS011;34679;51.436;-2.518;2022-10-30T06:22:07;20.83;;;3.40;;
48859;SDS011;34679;51.436;-2.518;2022-10-30T06:24:34;26.48;;;5.60;;
48859;SDS011;34679;51.436;-2.518;2022-10-30T06:26:59;26.65;;;4.40;;
48859;SDS011;34679;51.436;-2.518;2022-10-30T06:29:25;32.78;;;3.80;;
48859;SDS011;34679;51.436;-2.518;2022-10-30T06:31:51;26.80;;;3.65;;
48859;SDS011;34679;51.436;-2.518;2022-10-30T06:34:16;28.17;;;3.08;;
48859;SDS011;34679;51.436;-2.518;2022-10-30T06:36:42;26.75;;;3.15;;
48859;SDS011;34679;51.436;-2.518;2022-10-30T06:39:08;29.08;;;4.57;;
48859;SDS011;34679;51.436;-2.518;2022-10-30T06:41:33;27.63;;;3.50;;
48859;SDS011;34679;51.436;-2.518;2022-10-30T06:43:59;33.95;;;4.20;;
48859;SDS011;34679;51.436;-2.518;2022-10-30T06:46:25;36.40;;;4.07;;
48859;SDS011;34679;51.436;-2.518;2022-10-30T06:48:50;23.58;;;3.47;;
48859;SDS011;34679;51.436;-2.518;2022-10-30T06:51:16;27.05;;;2.90;;
48859;SDS011;34679;51.436;-2.518;2022-10-30T06:53:42;28.45;;;3.80;;
48859;SDS011;34679;51.436;-2.518;2022-10-30T06:56:08;18.80;;;4.07;;
48859;SDS011;34679;51.436;-2.518;2022-10-30T06:58:34;30.83;;;3.50;;
48859;SDS011;34679;51.436;-2.518;2022-10-30T07:01:05;29.30;;;4.15;;
48859;SDS011;34679;51.436;-2.518;2022-10-30T07:03:32;27.30;;;3.45;;
48859;SDS011;34679;51.436;-2.518;2022-10-30T07:05:58;26.23;;;3.70;;
48859;SDS011;34679;51.436;-2.518;2022-10-30T07:08:24;25.63;;;3.90;;
48859;SDS011;34679;51.436;-2.518;2022-10-30T07:10:50;31.60;;;3.85;;
48859;SDS011;34679;51.436;-2.518;2022-10-30T07:13:15;29.75;;;4.05;;
48859;SDS011;34679;51.436;-2.518;2022-10-30T07:15:41;24.77;;;3.97;;
48859;SDS011;34679;51.436;-2.518;2022-10-30T07:18:07;28.67;;;3.42;;
48859;SDS011;34679;51.436;-2.518;2022-10-30T07:20:34;31.92;;;3.30;;
48859;SDS011;34679;51.436;-2.518;2022-10-30T07:23:00;27.73;;;5.13;;
48859;SDS011;34679;51.436;-2.518;2022-10-30T07:25:27;21.15;;;3.58;;
48859;SDS011;34679;51.436;-2.518;2022-10-30T07:27:54;29.42;;;3.70;;
48859;SDS011;34679;51.436;-2.518;2022-10-30T07:30:21;28.10;;;4.20;;
48859;SDS011;34679;51.436;-2.518;2022-10-30T07:32:58;22.60;;;2.85;;
48859;SDS011;34679;51.436;-2.518;2022-10-30T07:35:25;23.48;;;3.53;;
48859;SDS011;34679;51.436;-2.518;2022-10-30T07:37:51;24.75;;;3.58;;
48859;SDS011;34679;51.436;-2.518;2022-10-30T07:40:18;18.73;;;2.85;;
48859;SDS011;34679;51.436;-2.518;2022-10-30T07:42:43;39.85;;;5.88;;
48859;SDS011;34679;51.436;-2.518;2022-10-30T07:45:09;32.17;;;3.20;;
48859;SDS011;34679;51.436;-2.518;2022-10-30T07:47:41;30.92;;;4.20;;
48859;SDS011;34679;51.436;-2.518;2022-10-30T07:50:08;30.33;;;3.58;;
48859;SDS011;34679;51.436;-2.518;2022-10-30T07:52:34;30.52;;;3.13;;
48859;SDS011;34679;51.436;-2.518;2022-10-30T07:55:00;31.65;;;3.90;;
48859;SDS011;34679;51.436;-2.518;2022-10-30T07:57:26;27.95;;;3.05;;
48859;SDS011;34679;51.436;-2.518;2022-10-30T07:59:54;28.08;;;3.35;;
48859;SDS011;34679;51.436;-2.518;2022-10-30T08:02:20;37.08;;;4.30;;
48859;SDS011;34679;51.436;-2.518;2022-10-30T08:04:45;26.70;;;4.13;;
48859;SDS011;34679;51.436;-2.518;2022-10-30T08:07:11;28.40;;;3.72;;
48859;SDS011;34679;51.436;-2.518;2022-10-30T08:09:37;27.33;;;3.78;;
48859;SDS011;34679;51.436;-2.518;2022-10-30T08:12:02;37.45;;;4.85;;
48859;SDS011;34679;51.436;-2.518;2022-10-30T08:14:28;32.97;;;3.75;;
48859;SDS011;34679;51.436;-2.518;2022-10-30T08:16:54;34.88;;;4.30;;
48859;SDS011;34679;51.436;-2.518;2022-10-30T08:19:19;36.47;;;4.07;;
48859;SDS011;34679;51.436;-2.518;2022-10-30T08:21:45;23.08;;;3.50;;
48859;SDS011;34679;51.436;-2.518;2022-10-30T08:24:11;26.20;;;3.55;;
48859;SDS011;34679;51.436;-2.518;2022-10-30T08:26:37;26.58;;;4.13;;
48859;SDS011;34679;51.436;-2.518;2022-10-30T08:29:02;22.85;;;2.90;;
48859;SDS011;34679;51.436;-2.518;2022-10-30T08:31:29;28.95;;;3.65;;
48859;SDS011;34679;51.436;-2.518;2022-10-30T08:33:55;19.73;;;3.67;;
48859;SDS011;34679;51.436;-2.518;2022-10-30T08:36:20;25.17;;;3.30;;
48859;SDS011;34679;51.436;-2.518;2022-10-30T08:38:46;21.55;;;4.32;;
48859;SDS011;34679;51.436;-2.518;2022-10-30T08:41:12;25.75;;;3.67;;
48859;SDS011;34679;51.436;-2.518;2022-10-30T08:43:37;25.42;;;3.15;;
48859;SDS011;34679;51.436;-2.518;2022-10-30T08:46:03;22.92;;;3.17;;
48859;SDS011;34679;51.436;-2.518;2022-10-30T08:48:29;25.25;;;3.30;;
48859;SDS011;34679;51.436;-2.518;2022-10-30T08:50:58;29.25;;;3.10;;
48859;SDS011;34679;51.436;-2.518;2022-10-30T08:53:27;25.08;;;3.00;;
48859;SDS011;34679;51.436;-2.518;2022-10-30T08:55:52;22.40;;;3.67;;
48859;SDS011;34679;51.436;-2.518;2022-10-30T08:58:18;26.40;;;3.05;;
48859;SDS011;34679;51.436;-2.518;2022-10-30T09:00:44;20.33;;;3.05;;
48859;SDS011;34679;51.436;-2.518;2022-10-30T09:03:09;25.23;;;3.30;;
48859;SDS011;34679;51.436;-2.518;2022-10-30T09:05:35;21.23;;;2.90;;
48859;SDS011;34679;51.436;-2.518;2022-10-30T09:08:01;27.90;;;4.15;;
48859;SDS011;34679;51.436;-2.518;2022-10-30T09:10:27;24.25;;;4.88;;
48859;SDS011;34679;51.436;-2.518;2022-10-30T09:12:54;27.30;;;3.17;;
48859;SDS011;34679;51.436;-2.518;2022-10-30T09:15:23;23.52;;;3.25;;
48859;SDS011;34679;51.436;-2.518;2022-10-30T09:18:00;24.67;;;5.40;;
48859;SDS011;34679;51.436;-2.518;2022-10-30T09:20:27;18.83;;;3.75;;
48859;SDS011;34679;51.436;-2.518;2022-10-30T09:22:53;26.75;;;4.35;;
48859;SDS011;34679;51.436;-2.518;2022-10-30T09:25:19;14.77;;;3.15;;
48859;SDS011;34679;51.436;-2.518;2022-10-30T09:27:45;19.67;;;2.95;;
48859;SDS011;34679;51.436;-2.518;2022-10-30T09:30:11;25.83;;;3.15;;
48859;SDS011;34679;51.436;-2.518;2022-10-30T09:32:38;26.15;;;3.53;;
48859;SDS011;34679;51.436;-2.518;2022-10-30T09:35:04;28.23;;;4.57;;
48859;SDS011;34679;51.436;-2.518;2022-10-30T09:37:34;18.10;;;2.88;;
48859;SDS011;34679;51.436;-2.518;2022-10-30T09:40:00;22.05;;;3.42;;
48859;SDS011;34679;51.436;-2.518;2022-10-30T09:48:14;22.85;;;3.15;;
48859;SDS011;34679;51.436;-2.518;2022-10-30T09:56:02;26.42;;;4.22;;
48859;SDS011;34679;51.436;-2.518;2022-10-30T10:06:51;23.10;;;3.42;;
48859;SDS011;34679;51.436;-2.518;2022-10-30T10:09:22;22.27;;;3.58;;
48859;SDS011;34679;51.436;-2.518;2022-10-30T10:15:04;30.50;;;4.20;;
48859;SDS011;34679;51.436;-2.518;2022-10-30T10:17:37;22.30;;;4.40;;
48859;SDS011;34679;51.436;-2.518;2022-10-30T10:20:10;17.45;;;3.75;;
48859;SDS011;34679;51.436;-2.518;2022-10-30T10:22:48;24.45;;;3.05;;
48859;SDS011;34679;51.436;-2.518;2022-10-30T10:25:16;19.00;;;2.70;;
48859;SDS011;34679;51.436;-2.518;2022-10-30T10:30:40;18.90;;;3.75;;
48859;SDS011;34679;51.436;-2.518;2022-10-30T10:33:31;18.63;;;2.63;;
48859;SDS011;34679;51.436;-2.518;2022-10-30T10:39:16;16.05;;;2.75;;
48859;SDS011;34679;51.436;-2.518;2022-10-30T10:44:33;17.52;;;2.70;;
48859;SDS011;34679;51.436;-2.518;2022-10-30T10:52:34;18.45;;;2.88;;
48859;SDS011;34679;51.436;-2.518;2022-10-30T10:55:04;14.52;;;2.90;;
48859;SDS011;34679;51.436;-2.518;2022-10-30T10:57:38;19.08;;;2.47;;
48859;SDS011;34679;51.436;-2.518;2022-10-30T11:05:31;14.70;;;3.15;;
48859;SDS011;34679;51.436;-2.518;2022-10-30T11:08:03;10.82;;;2.22;;
48859;SDS011;34679;51.436;-2.518;2022-10-30T11:10:48;13.25;;;2.50;;
48859;SDS011;34679;51.436;-2.518;2022-10-30T11:13:22;9.70;;;2.08;;
48859;SDS011;34679;51.436;-2.518;2022-10-30T11:16:02;17.27;;;2.80;;
48859;SDS011;34679;51.436;-2.518;2022-10-30T11:18:33;14.25;;;2.20;;
48859;SDS011;34679;51.436;-2.518;2022-10-30T11:21:09;21.45;;;3.80;;
48859;SDS011;34679;51.436;-2.518;2022-10-30T11:23:44;20.23;;;2.85;;
48859;SDS011;34679;51.436;-2.518;2022-10-30T11:28:48;14.60;;;2.22;;
48859;SDS011;34679;51.436;-2.518;2022-10-30T11:33:48;13.20;;;2.08;;
48859;SDS011;34679;51.436;-2.518;2022-10-30T11:36:15;20.55;;;3.40;;
48859;SDS011;34679;51.436;-2.518;2022-10-30T11:38:43;25.25;;;2.60;;
48859;SDS011;34679;51.436;-2.518;2022-10-30T11:41:09;16.80;;;2.28;;
48859;SDS011;34679;51.436;-2.518;2022-10-30T11:43:36;18.42;;;2.08;;
48859;SDS011;34679;51.436;-2.518;2022-10-30T11:46:04;17.17;;;3.10;;
48859;SDS011;34679;51.436;-2.518;2022-10-30T11:48:36;16.70;;;2.35;;
48859;SDS011;34679;51.436;-2.518;2022-10-30T11:51:05;13.25;;;2.20;;
48859;SDS011;34679;51.436;-2.518;2022-10-30T11:56:00;26.02;;;3.63;;
48859;SDS011;34679;51.436;-2.518;2022-10-30T12:03:35;12.15;;;2.25;;
48859;SDS011;34679;51.436;-2.518;2022-10-30T12:06:07;22.08;;;2.42;;
48859;SDS011;34679;51.436;-2.518;2022-10-30T12:08:35;19.33;;;2.60;;
48859;SDS011;34679;51.436;-2.518;2022-10-30T12:11:01;15.45;;;2.55;;
48859;SDS011;34679;51.436;-2.518;2022-10-30T12:13:36;13.10;;;2.28;;
48859;SDS011;34679;51.436;-2.518;2022-10-30T12:18:50;21.02;;;3.08;;
48859;SDS011;34679;51.436;-2.518;2022-10-30T12:21:50;17.65;;;2.58;;
48859;SDS011;34679;51.436;-2.518;2022-10-30T12:24:28;14.52;;;3.03;;
48859;SDS011;34679;51.436;-2.518;2022-10-30T12:26:55;20.65;;;2.90;;
48859;SDS011;34679;51.436;-2.518;2022-10-30T12:29:28;16.13;;;3.08;;
48859;SDS011;34679;51.436;-2.518;2022-10-30T12:32:06;17.05;;;2.20;;
48859;SDS011;34679;51.436;-2.518;2022-10-30T12:34:40;12.88;;;2.10;;
48859;SDS011;34679;51.436;-2.518;2022-10-30T12:40:00;21.38;;;2.95;;
48859;SDS011;34679;51.436;-2.518;2022-10-30T12:42:36;3.95;;;0.70;;
48859;SDS011;34679;51.436;-2.518;2022-10-30T12:45:13;3.70;;;1.00;;
48859;SDS011;34679;51.436;-2.518;2022-10-30T12:47:47;4.90;;;0.60;;
48859;SDS011;34679;51.436;-2.518;2022-10-30T12:50:25;5.93;;;0.77;;
48859;SDS011;34679;51.436;-2.518;2022-10-30T12:55:48;4.07;;;0.88;;
48859;SDS011;34679;51.436;-2.518;2022-10-30T13:04:36;2.72;;;0.63;;
48859;SDS011;34679;51.436;-2.518;2022-10-30T13:06:49;2.53;;;0.70;;
48859;SDS011;34679;51.436;-2.518;2022-10-30T13:09:29;3.88;;;0.60;;
48859;SDS011;34679;51.436;-2.518;2022-10-30T13:14:34;6.28;;;2.00;;
48859;SDS011;34679;51.436;-2.518;2022-10-30T13:17:14;4.33;;;0.80;;
48859;SDS011;34679;51.436;-2.518;2022-10-30T13:19:40;3.08;;;0.80;;
48859;SDS011;34679;51.436;-2.518;2022-10-30T13:22:14;6.70;;;1.73;;
48859;SDS011;34679;51.436;-2.518;2022-10-30T13:24:48;5.07;;;1.05;;
48859;SDS011;34679;51.436;-2.518;2022-10-30T13:27:39;5.65;;;1.00;;
48859;SDS011;34679;51.436;-2.518;2022-10-30T13:30:13;7.30;;;1.00;;
48859;SDS011;34679;51.436;-2.518;2022-10-30T13:32:57;6.57;;;1.20;;
48859;SDS011;34679;51.436;-2.518;2022-10-30T13:46:43;7.07;;;1.35;;
48859;SDS011;34679;51.436;-2.518;2022-10-30T13:49:37;7.47;;;1.30;;
48859;SDS011;34679;51.436;-2.518;2022-10-30T13:52:19;14.30;;;3.55;;
48859;SDS011;34679;51.436;-2.518;2022-10-30T13:57:26;9.63;;;1.42;;
48859;SDS011;34679;51.436;-2.518;2022-10-30T14:00:13;11.77;;;1.65;;
48859;SDS011;34679;51.436;-2.518;2022-10-30T14:02:54;10.30;;;1.67;;
48859;SDS011;34679;51.436;-2.518;2022-10-30T14:06:09;10.65;;;1.58;;
48859;SDS011;34679;51.436;-2.518;2022-10-30T14:11:13;8.57;;;1.80;;
48859;SDS011;34679;51.436;-2.518;2022-10-30T14:16:31;11.65;;;1.58;;
48859;SDS011;34679;51.436;-2.518;2022-10-30T14:19:09;12.50;;;2.47;;
48859;SDS011;34679;51.436;-2.518;2022-10-30T14:26:43;14.80;;;1.77;;
48859;SDS011;34679;51.436;-2.518;2022-10-30T14:37:14;15.68;;;2.67;;
48859;SDS011;34679;51.436;-2.518;2022-10-30T14:39:45;14.45;;;2.33;;
48859;SDS011;34679;51.436;-2.518;2022-10-30T14:56:17;23.02;;;3.35;;
48859;SDS011;34679;51.436;-2.518;2022-10-30T14:59:16;19.67;;;2.60;;
48859;SDS011;34679;51.436;-2.518;2022-10-30T15:15:28;16.67;;;2.50;;
48859;SDS011;34679;51.436;-2.518;2022-10-30T15:17:56;17.52;;;2.95;;
48859;SDS011;34679;51.436;-2.518;2022-10-30T15:20:26;15.07;;;3.05;;
48859;SDS011;34679;51.436;-2.518;2022-10-30T15:23:02;17.33;;;2.75;;
48859;SDS011;34679;51.436;-2.518;2022-10-30T15:25:51;20.38;;;4.10;;
48859;SDS011;34679;51.436;-2.518;2022-10-30T15:28:20;20.08;;;3.20;;
48859;SDS011;34679;51.436;-2.518;2022-10-30T15:33:35;15.75;;;2.60;;
48859;SDS011;34679;51.436;-2.518;2022-10-30T15:36:02;17.52;;;3.55;;
48859;SDS011;34679;51.436;-2.518;2022-10-30T15:38:28;15.32;;;2.97;;
48859;SDS011;34679;51.436;-2.518;2022-10-30T15:40:58;15.57;;;2.80;;
48859;SDS011;34679;51.436;-2.518;2022-10-30T15:43:30;14.77;;;2.88;;
48859;SDS011;34679;51.436;-2.518;2022-10-30T15:45:58;17.88;;;3.03;;
48859;SDS011;34679;51.436;-2.518;2022-10-30T15:48:25;22.08;;;3.20;;
48859;SDS011;34679;51.436;-2.518;2022-10-30T15:53:53;21.95;;;3.92;;
48859;SDS011;34679;51.436;-2.518;2022-10-30T15:56:26;19.15;;;2.90;;
48859;SDS011;34679;51.436;-2.518;2022-10-30T15:59:18;29.75;;;3.63;;
48859;SDS011;34679;51.436;-2.518;2022-10-30T16:01:47;18.13;;;3.72;;
48859;SDS011;34679;51.436;-2.518;2022-10-30T16:04:20;26.42;;;3.28;;
48859;SDS011;34679;51.436;-2.518;2022-10-30T16:07:22;24.75;;;3.13;;
48859;SDS011;34679;51.436;-2.518;2022-10-30T16:09:50;31.55;;;3.67;;
48859;SDS011;34679;51.436;-2.518;2022-10-30T16:12:17;17.67;;;2.60;;
48859;SDS011;34679;51.436;-2.518;2022-10-30T16:14:43;16.55;;;3.15;;
48859;SDS011;34679;51.436;-2.518;2022-10-30T16:17:09;20.27;;;3.17;;
48859;SDS011;34679;51.436;-2.518;2022-10-30T16:19:39;16.48;;;3.17;;
48859;SDS011;34679;51.436;-2.518;2022-10-30T16:22:10;22.15;;;3.80;;
48859;SDS011;34679;51.436;-2.518;2022-10-30T16:24:40;27.52;;;3.38;;
48859;SDS011;34679;51.436;-2.518;2022-10-30T16:27:13;24.27;;;3.55;;
48859;SDS011;34679;51.436;-2.518;2022-10-30T16:29:48;26.73;;;3.38;;
48859;SDS011;34679;51.436;-2.518;2022-10-30T16:32:16;26.40;;;3.53;;
48859;SDS011;34679;51.436;-2.518;2022-10-30T16:34:45;27.60;;;3.50;;
48859;SDS011;34679;51.436;-2.518;2022-10-30T16:37:19;23.00;;;3.28;;
48859;SDS011;34679;51.436;-2.518;2022-10-30T16:40:15;21.30;;;3.63;;
48859;SDS011;34679;51.436;-2.518;2022-10-30T16:42:48;25.85;;;3.10;;
48859;SDS011;34679;51.436;-2.518;2022-10-30T16:47:50;31.27;;;4.05;;
48859;SDS011;34679;51.436;-2.518;2022-10-30T16:50:22;25.75;;;3.47;;
48859;SDS011;34679;51.436;-2.518;2022-10-30T16:53:06;29.92;;;3.72;;
48859;SDS011;34679;51.436;-2.518;2022-10-30T16:55:41;29.92;;;3.95;;
48859;SDS011;34679;51.436;-2.518;2022-10-30T16:58:08;21.65;;;3.47;;
48859;SDS011;34679;51.436;-2.518;2022-10-30T17:00:40;25.75;;;3.45;;
48859;SDS011;34679;51.436;-2.518;2022-10-30T17:03:12;23.58;;;3.63;;
48859;SDS011;34679;51.436;-2.518;2022-10-30T17:05:39;22.48;;;3.45;;
48859;SDS011;34679;51.436;-2.518;2022-10-30T17:10:43;27.05;;;4.15;;
48859;SDS011;34679;51.436;-2.518;2022-10-30T17:13:32;36.72;;;3.03;;
48859;SDS011;34679;51.436;-2.518;2022-10-30T17:16:17;23.35;;;4.38;;
48859;SDS011;34679;51.436;-2.518;2022-10-30T17:18:48;41.03;;;7.70;;
48859;SDS011;34679;51.436;-2.518;2022-10-30T17:21:19;19.42;;;3.60;;
48859;SDS011;34679;51.436;-2.518;2022-10-30T17:23:49;35.95;;;4.80;;
48859;SDS011;34679;51.436;-2.518;2022-10-30T17:26:17;24.90;;;3.85;;